^^

STATION HISTORICAL DATA

Daily Summary for November 19, 2018 Units:  English    Metric   Both
« Previous Day
Next Day »
Daily Weekly Monthly Yearly Custom
  Current: High: Low: Average:
Temperature: 37.4 °F 37.4 °F 18.0 °F 24.5 °F
Dew Point: 29.5 °F 29.9 °F 15.6 °F 22 °F
Humidity: 73 % 94 % 73 % 91 %
Wind Speed: 8.1 mph 11.5 mph 0.0 mph 3.2 mph
Wind Gust: 1.5 mph 7.0 mph - -
Wind:WSW - - SW
Pressure: 30.06 in 30.18 in 30.06 in -
Precipitation: 6.60 in      
Historical Graphs
 
 
Tabular Data for November 19, 2018
Time Temperature Dew Point Pressure Wind Wind Speed Wind Gust Humidity Rainfall Rate (Hourly) solar Conditions
00:04 18.0 °F 15.6 °F 30.18 in Calm     90 % 0.00 in 0.00 W/m2 CLR
00:09 18.0 °F 15.6 °F 30.18 in Calm     90 % 0.00 in 0.00 W/m2 CLR
00:14 18.0 °F 15.6 °F 30.18 in Calm     90 % 0.00 in 0.00 W/m2 CLR
00:19 18.1 °F 15.7 °F 30.18 in Calm     90 % 0.00 in 0.00 W/m2 CLR
00:24 18.2 °F 16.0 °F 30.18 in Calm     91 % 0.00 in 0.00 W/m2 CLR
00:29 18.3 °F 16.1 °F 30.17 in Calm     91 % 0.00 in 0.00 W/m2 CLR
00:34 18.3 °F 16.1 °F 30.17 in Calm     91 % 0.00 in 0.00 W/m2 CLR
00:39 18.2 °F 16.0 °F 30.17 in Calm     91 % 0.00 in 0.00 W/m2 CLR
00:44 18.3 °F 16.1 °F 30.17 in Calm     91 % 0.00 in 0.00 W/m2 CLR
00:49 18.3 °F 16.1 °F 30.17 in Calm     91 % 0.00 in 0.00 W/m2 CLR
00:54 18.4 °F 16.2 °F 30.17 in Calm     91 % 0.00 in 0.00 W/m2 CLR
00:59 18.5 °F 16.3 °F 30.17 in Calm     91 % 0.00 in 0.00 W/m2 CLR
01:04 18.5 °F 16.3 °F 30.17 in Calm     91 % 0.00 in 0.00 W/m2 CLR
01:09 18.4 °F 16.2 °F 30.18 in Calm     91 % 0.00 in 0.00 W/m2 CLR
01:14 18.2 °F 16.0 °F 30.17 in Calm     91 % 0.00 in 0.00 W/m2 CLR
01:19 18.2 °F 16.0 °F 30.17 in Calm     91 % 0.00 in 0.00 W/m2 CLR
01:24 18.1 °F 15.9 °F 30.17 in Calm     91 % 0.00 in 0.00 W/m2 CLR
01:29 18.1 °F 15.9 °F 30.17 in Calm     91 % 0.00 in 0.00 W/m2 CLR
01:34 18.5 °F 16.6 °F 30.16 in Calm     92 % 0.00 in 0.00 W/m2 CLR
01:39 18.9 °F 16.7 °F 30.16 in Calm     91 % 0.00 in 0.00 W/m2 CLR
01:44 19.1 °F 17.2 °F 30.16 in Calm     92 % 0.00 in 0.00 W/m2 CLR
01:49 19.1 °F 16.9 °F 30.16 in Calm     91 % 0.00 in 0.00 W/m2 CLR
01:54 19.1 °F 16.9 °F 30.17 in Calm     91 % 0.00 in 0.00 W/m2 CLR
01:59 19.0 °F 16.8 °F 30.16 in Calm     91 % 0.00 in 0.00 W/m2 CLR
02:04 18.9 °F 16.7 °F 30.17 in Calm     91 % 0.00 in 0.00 W/m2 CLR
02:09 18.8 °F 16.6 °F 30.16 in Calm     91 % 0.00 in 0.00 W/m2 CLR
02:14 18.8 °F 16.6 °F 30.16 in Calm     91 % 0.00 in 0.00 W/m2 CLR
02:19 18.7 °F 16.5 °F 30.17 in Calm     91 % 0.00 in 0.00 W/m2 CLR
02:24 18.7 °F 16.5 °F 30.17 in Calm     91 % 0.00 in 0.00 W/m2 CLR
02:29 18.7 °F 16.5 °F 30.17 in Calm     91 % 0.00 in 0.00 W/m2 CLR
02:34 18.7 °F 16.5 °F 30.17 in Calm     91 % 0.00 in 0.00 W/m2 CLR
02:39 18.7 °F 16.5 °F 30.17 in Calm     91 % 0.00 in 0.00 W/m2 CLR
02:44 18.8 °F 16.6 °F 30.17 in Calm     91 % 0.00 in 0.00 W/m2 CLR
02:49 18.9 °F 16.7 °F 30.17 in Calm     91 % 0.00 in 0.00 W/m2 CLR
02:54 18.9 °F 17.0 °F 30.17 in Calm     92 % 0.00 in 0.00 W/m2 CLR
02:59 18.9 °F 16.7 °F 30.17 in Calm     91 % 0.00 in 0.00 W/m2 CLR
03:04 18.8 °F 16.6 °F 30.17 in Calm     91 % 0.00 in 0.00 W/m2 CLR
03:09 18.8 °F 16.6 °F 30.17 in Calm     91 % 0.00 in 0.00 W/m2 CLR
03:14 18.7 °F 16.5 °F 30.17 in Calm     91 % 0.00 in 0.00 W/m2 CLR
03:19 18.7 °F 16.5 °F 30.16 in Calm     91 % 0.00 in 0.00 W/m2 CLR
03:24 18.7 °F 16.5 °F 30.16 in Calm     91 % 0.00 in 0.00 W/m2 CLR
03:29 18.8 °F 16.9 °F 30.16 in Calm     92 % 0.00 in 0.00 W/m2 CLR
03:34 19.1 °F 17.2 °F 30.16 in Calm     92 % 0.00 in 0.00 W/m2 CLR
03:39 19.4 °F 17.5 °F 30.16 in Calm     92 % 0.00 in 0.00 W/m2 CLR
03:44 19.6 °F 17.7 °F 30.16 in Calm     92 % 0.00 in 0.00 W/m2 CLR
03:49 19.8 °F 17.9 °F 30.16 in Calm     92 % 0.00 in 0.00 W/m2 CLR
03:54 19.9 °F 18.0 °F 30.16 in Calm     92 % 0.00 in 0.00 W/m2 CLR
03:59 19.9 °F 18.0 °F 30.15 in Calm     92 % 0.00 in 0.00 W/m2 CLR
04:04 20.0 °F 18.1 °F 30.15 in Calm     92 % 0.00 in 0.00 W/m2 CLR
04:09 20.0 °F 18.1 °F 30.15 in Calm     92 % 0.00 in 0.00 W/m2 CLR
04:14 20.1 °F 18.1 °F 30.15 in Calm     92 % 0.00 in 0.00 W/m2 CLR
04:19 20.2 °F 18.2 °F 30.15 in Calm     92 % 0.00 in 0.00 W/m2 CLR
04:24 20.2 °F 18.2 °F 30.15 in Calm     92 % 0.00 in 0.00 W/m2 CLR
04:29 20.3 °F 18.1 °F 30.15 in Calm     91 % 0.00 in 0.00 W/m2 CLR
04:34 20.2 °F 18.0 °F 30.15 in Calm     91 % 0.00 in 0.00 W/m2 CLR
04:39 20.2 °F 18.0 °F 30.14 in Calm     91 % 0.00 in 0.00 W/m2 CLR
04:44 20.0 °F 17.8 °F 30.14 in Calm     91 % 0.00 in 0.00 W/m2 CLR
04:49 19.9 °F 17.7 °F 30.14 in Calm     91 % 0.00 in 0.00 W/m2 CLR
04:54 19.9 °F 17.7 °F 30.14 in Calm     91 % 0.00 in 0.00 W/m2 CLR
04:59 19.8 °F 17.6 °F 30.14 in Calm     91 % 0.00 in 0.00 W/m2 CLR
05:04 19.8 °F 17.6 °F 30.14 in Calm     91 % 0.00 in 0.00 W/m2 -SN
05:09 19.8 °F 17.6 °F 30.14 in Calm     91 % 0.00 in 0.00 W/m2 -SN
05:14 19.8 °F 17.6 °F 30.14 in Calm     91 % 0.00 in 0.00 W/m2 -SN
05:19 19.9 °F 17.7 °F 30.14 in Calm     91 % 0.00 in 0.00 W/m2 -SN
05:24 20.0 °F 17.8 °F 30.13 in Calm     91 % 0.00 in 0.00 W/m2 -SN
05:29 20.2 °F 18.0 °F 30.13 in SSW 1.2 mph 0.9 mph 91 % 0.00 in 0.00 W/m2 -SN
05:34 20.4 °F 18.2 °F 30.13 in SSW 4.6 mph 2.0 mph 91 % 0.00 in 0.00 W/m2 -SN
05:39 20.6 °F 18.6 °F 30.13 in SSW 3.5 mph 1.1 mph 92 % 0.00 in 0.00 W/m2 -SN
05:44 21.2 °F 19.2 °F 30.13 in Calm     92 % 0.00 in 0.00 W/m2 -SN
05:49 21.8 °F 19.8 °F 30.13 in SSW 4.6 mph 1.5 mph 92 % 0.00 in 0.00 W/m2 -SN
05:54 22.4 °F 20.4 °F 30.14 in SW 3.5 mph   92 % 0.00 in 0.00 W/m2 CLR
05:59 22.8 °F 20.8 °F 30.14 in SW 3.5 mph   92 % 0.00 in 0.00 W/m2 CLR
06:04 23.1 °F 21.4 °F 30.14 in SW 2.3 mph 0.4 mph 93 % 0.00 in 0.00 W/m2 CLR
06:09 23.4 °F 21.7 °F 30.13 in SSW 6.9 mph 1.7 mph 93 % 0.00 in 0.00 W/m2 CLR
06:14 23.6 °F 21.9 °F 30.13 in SSW 8.0 mph 3.7 mph 93 % 0.00 in 0.00 W/m2 CLR
06:19 23.7 °F 22.0 °F 30.13 in SSW 7.0 mph 3.0 mph 93 % 0.00 in 0.00 W/m2 CLR
06:24 23.8 °F 22.1 °F 30.13 in Calm     93 % 0.00 in 0.00 W/m2 OVC
06:29 24.0 °F 22.3 °F 30.12 in SW 4.6 mph 1.4 mph 93 % 0.00 in 0.00 W/m2 OVC
06:34 24.1 °F 22.4 °F 30.12 in SSW 7.0 mph 3.8 mph 93 % 0.00 in 0.00 W/m2 OVC
06:39 24.2 °F 22.5 °F 30.12 in SSW 3.5 mph 1.8 mph 93 % 0.00 in 0.00 W/m2 OVC
06:44 24.2 °F 22.5 °F 30.13 in SSW 1.2 mph   93 % 0.00 in 0.00 W/m2 OVC
06:49 24.3 °F 22.6 °F 30.12 in SW 6.0 mph 3.1 mph 93 % 0.00 in 0.00 W/m2 OVC
06:54 24.4 °F 22.7 °F 30.13 in SW 5.8 mph 2.3 mph 93 % 0.00 in 0.00 W/m2 OVC
06:59 24.5 °F 22.8 °F 30.12 in SSW 2.3 mph   93 % 0.00 in 0.00 W/m2 OVC
07:04 24.6 °F 22.9 °F 30.12 in SSW 6.0 mph 2.6 mph 93 % 0.00 in 0.00 W/m2 OVC
07:09 24.7 °F 23.0 °F 30.12 in SSW 3.5 mph 0.8 mph 93 % 0.00 in 5.00 W/m2 OVC
07:14 24.8 °F 23.1 °F 30.12 in Calm     93 % 0.00 in 5.00 W/m2 OVC
07:19 24.9 °F 23.2 °F 30.12 in SSW 3.0 mph 1.4 mph 93 % 0.00 in 9.00 W/m2 OVC
07:24 25.1 °F 23.6 °F 30.12 in SSW 3.5 mph 1.3 mph 94 % 0.00 in 16.00 W/m2 OVC
07:29 25.2 °F 23.7 °F 30.12 in Calm     94 % 0.00 in 21.00 W/m2 OVC
07:34 25.3 °F 23.8 °F 30.12 in SSW 3.0 mph 0.1 mph 94 % 0.00 in 23.00 W/m2 OVC
07:39 25.5 °F 24.0 °F 30.12 in SSW 2.3 mph   94 % 0.00 in 37.00 W/m2 OVC
07:44 25.7 °F 24.2 °F 30.12 in SSW 5.8 mph 4.1 mph 94 % 0.00 in 49.00 W/m2 OVC
07:49 25.9 °F 24.4 °F 30.11 in Calm     94 % 0.00 in 58.00 W/m2 OVC
07:54 26.1 °F 24.6 °F 30.11 in SSW 5.8 mph 4.8 mph 94 % 0.00 in 70.00 W/m2 OVC
07:59 26.3 °F 24.8 °F 30.11 in SSW 3.5 mph   94 % 0.00 in 72.00 W/m2 OVC
08:04 26.5 °F 25.0 °F 30.12 in SSW 3.5 mph 3.0 mph 94 % 0.00 in 70.00 W/m2 OVC
08:09 26.6 °F 25.1 °F 30.12 in SW 8.1 mph 3.6 mph 94 % 0.00 in 63.00 W/m2 OVC
08:14 26.7 °F 25.2 °F 30.12 in SSW 3.5 mph 0.7 mph 94 % 0.00 in 51.00 W/m2 OVC
08:19 26.9 °F 25.4 °F 30.12 in SSW 3.0 mph 1.9 mph 94 % 0.00 in 54.00 W/m2 OVC
08:24 27.0 °F 25.5 °F 30.12 in SW 8.0 mph 1.5 mph 94 % 0.00 in 56.00 W/m2 OVC
08:29 27.1 °F 25.6 °F 30.12 in Calm     94 % 0.00 in 60.00 W/m2 OVC
08:34 27.2 °F 25.7 °F 30.12 in Calm     94 % 0.00 in 65.00 W/m2 OVC
08:39 27.2 °F 25.7 °F 30.12 in SW 6.9 mph 3.7 mph 94 % 0.00 in 70.00 W/m2 OVC
08:44 27.2 °F 25.7 °F 30.12 in SSW 3.5 mph   94 % 0.00 in 83.00 W/m2 OVC
08:49 27.3 °F 25.8 °F 30.12 in SSW 8.1 mph 5.6 mph 94 % 0.00 in 111.00 W/m2 OVC
08:54 27.4 °F 25.9 °F 30.12 in SSW 7.0 mph 5.1 mph 94 % 0.00 in 167.00 W/m2 OVC
08:59 27.7 °F 26.2 °F 30.12 in SSW 8.0 mph 2.6 mph 94 % 0.00 in 206.00 W/m2 OVC
09:04 27.9 °F 26.4 °F 30.11 in SW 6.0 mph 1.6 mph 94 % 0.00 in 229.00 W/m2 OVC
09:09 28.3 °F 26.8 °F 30.11 in SW 3.5 mph 1.7 mph 94 % 0.00 in 169.00 W/m2 OVC
09:14 28.4 °F 26.9 °F 30.11 in SW 6.9 mph 2.8 mph 94 % 0.00 in 179.00 W/m2 OVC
09:19 28.5 °F 27.0 °F 30.11 in SW 7.0 mph 1.3 mph 94 % 0.00 in 185.00 W/m2 OVC
09:24 28.6 °F 27.1 °F 30.11 in SW 3.5 mph   94 % 0.00 in 185.00 W/m2 OVC
09:29 28.8 °F 27.3 °F 30.11 in Calm     94 % 0.00 in 197.00 W/m2 OVC
09:34 29.0 °F 27.5 °F 30.11 in SSW 5.8 mph 3.4 mph 94 % 0.00 in 250.00 W/m2 OVC
09:39 29.2 °F 27.7 °F 30.11 in SW 6.9 mph 3.3 mph 94 % 0.00 in 272.00 W/m2 OVC
09:44 29.4 °F 27.9 °F 30.11 in SW 9.2 mph 4.1 mph 94 % 0.00 in 262.00 W/m2 OVC
09:49 29.7 °F 28.2 °F 30.11 in Calm     94 % 0.00 in 236.00 W/m2 OVC
09:54 29.9 °F 28.1 °F 30.11 in SW 7.0 mph 5.5 mph 93 % 0.00 in 204.00 W/m2 OVC
09:59 30.1 °F 28.3 °F 30.11 in SW 4.6 mph 2.7 mph 93 % 0.00 in 209.00 W/m2 OVC
10:04 30.1 °F 28.3 °F 30.11 in SW 9.2 mph 1.9 mph 93 % 0.00 in 216.00 W/m2 OVC
10:09 30.3 °F 28.5 °F 30.11 in SW 8.1 mph   93 % 0.00 in 207.00 W/m2 OVC
10:14 30.4 °F 28.4 °F 30.11 in SW 11.0 mph 5.8 mph 92 % 0.00 in 227.00 W/m2 OVC
10:19 30.5 °F 28.5 °F 30.11 in SW 5.8 mph 0.3 mph 92 % 0.00 in 246.00 W/m2 OVC
10:24 30.9 °F 28.9 °F 30.11 in SW 5.8 mph 2.5 mph 92 % 0.00 in 258.00 W/m2 OVC
10:29 31.2 °F 28.9 °F 30.11 in SW 8.1 mph 4.7 mph 91 % 0.00 in 246.00 W/m2 OVC
10:34 31.2 °F 28.6 °F 30.11 in WSW 9.2 mph 4.7 mph 90 % 0.00 in 230.00 W/m2 OVC
10:39 31.4 °F 28.8 °F 30.11 in WSW 9.2 mph 5.4 mph 90 % 0.00 in 221.00 W/m2 OVC
10:44 31.7 °F 28.8 °F 30.11 in Calm   3.5 mph 89 % 0.00 in 225.00 W/m2 OVC
10:49 31.8 °F 28.9 °F 30.11 in SW 3.5 mph   89 % 0.00 in 227.00 W/m2 OVC
10:54 31.9 °F 28.8 °F 30.10 in SW 8.1 mph 2.5 mph 88 % 0.00 in 246.00 W/m2 OVC
10:59 32.1 °F 28.7 °F 30.10 in WSW 10.0 mph 4.9 mph 87 % 0.00 in 278.00 W/m2 OVC
11:04 32.3 °F 28.9 °F 30.09 in SW 3.5 mph   87 % 0.00 in 452.00 W/m2 OVC
11:09 32.9 °F 29.5 °F 30.09 in SW 10.4 mph 4.1 mph 87 % 0.00 in 278.00 W/m2 OVC
11:14 32.9 °F 28.9 °F 30.09 in SW 11.5 mph 5.8 mph 85 % 0.00 in 206.00 W/m2 OVC
11:19 33.0 °F 29.0 °F 30.09 in SW 9.2 mph 4.1 mph 85 % 0.00 in 292.00 W/m2 OVC
11:24 33.9 °F 29.9 °F 30.09 in SW 10.0 mph 5.5 mph 85 % 0.00 in 510.00 W/m2 OVC
11:29 34.1 °F 29.2 °F 30.08 in SW 9.2 mph 5.4 mph 82 % 0.00 in 506.00 W/m2 OVC
11:34 34.5 °F 29.6 °F 30.08 in SW 4.6 mph 3.3 mph 82 % 0.00 in 501.00 W/m2 OVC
11:39 35.0 °F 29.8 °F 30.08 in SW 10.4 mph 1.2 mph 81 % 0.00 in 504.00 W/m2 OVC
11:44 35.2 °F 29.6 °F 30.07 in WSW 8.1 mph 5.5 mph 80 % 0.00 in 503.00 W/m2 OVC
11:49 35.3 °F 29.4 °F 30.07 in WSW 8.1 mph 3.9 mph 79 % 0.00 in 503.00 W/m2 OVC
11:54 35.6 °F 29.4 °F 30.07 in SW 11.0 mph 5.4 mph 78 % 0.00 in 504.00 W/m2 OVC
11:59 35.9 °F 29.7 °F 30.06 in SW 11.0 mph 2.7 mph 78 % 0.00 in 496.00 W/m2 OVC
12:04 36.0 °F 29.5 °F 30.07 in WSW 9.2 mph 2.3 mph 77 % 0.00 in 503.00 W/m2 OVC
12:09 36.5 °F 29.7 °F 30.06 in SW 8.1 mph 5.6 mph 76 % 0.00 in 503.00 W/m2 OVC
12:14 36.6 °F 29.7 °F 30.07 in SW 10.4 mph 6.9 mph 76 % 0.00 in 499.00 W/m2 OVC
12:19 36.8 °F 29.6 °F 30.07 in SW 8.0 mph 5.4 mph 75 % 0.00 in 499.00 W/m2 OVC
12:24 37.1 °F 29.9 °F 30.06 in SSW 9.2 mph 5.4 mph 75 % 0.00 in 490.00 W/m2 OVC
12:29 37.3 °F 29.8 °F 30.06 in SW 9.0 mph 7.0 mph 74 % 0.00 in 489.00 W/m2 OVC
12:34 37.4 °F 29.5 °F 30.06 in WSW 8.1 mph 1.5 mph 73 % 0.00 in 483.00 W/m2 OVC
Compliments of Weather Underground - 1.5 mb